createdAt,value
2018-12-21T00:01:06.083Z,6.40
2018-12-21T00:02:11.954Z,6.40
2018-12-21T00:03:18.132Z,6.40
2018-12-21T00:04:24.107Z,6.30
2018-12-21T00:05:30.605Z,6.40
2018-12-21T00:06:37.895Z,6.50
2018-12-21T00:07:44.031Z,6.50
2018-12-21T00:08:49.125Z,6.50
2018-12-21T00:09:54.979Z,6.50
2018-12-21T00:11:01.150Z,6.50
2018-12-21T00:12:07.637Z,6.50
2018-12-21T00:13:14.117Z,6.50
2018-12-21T00:14:20.597Z,6.50
2018-12-21T00:15:27.007Z,6.50
2018-12-21T00:16:32.807Z,6.50
2018-12-21T00:17:41.623Z,6.50
2018-12-21T00:18:47.607Z,6.50
2018-12-21T00:19:53.844Z,6.50
2018-12-21T00:21:00.286Z,6.60
2018-12-21T00:22:06.626Z,6.50
2018-12-21T00:23:12.461Z,6.50
2018-12-21T00:24:18.546Z,6.50
2018-12-21T00:25:24.738Z,6.60
2018-12-21T00:26:30.728Z,6.50
2018-12-21T00:27:36.928Z,6.50
2018-12-21T00:28:43.187Z,6.60
2018-12-21T00:29:48.895Z,6.50
2018-12-21T00:31:00.089Z,6.50
2018-12-21T00:32:11.298Z,6.60
2018-12-21T00:33:23.068Z,6.60
2018-12-21T00:34:34.439Z,6.70
2018-12-21T00:35:46.059Z,6.60
2018-12-21T00:36:57.788Z,6.70
2018-12-21T00:38:09.359Z,6.70
2018-12-21T00:39:20.610Z,6.70
2018-12-21T00:40:31.817Z,6.70
2018-12-21T00:41:37.211Z,6.70
2018-12-21T00:42:47.813Z,6.80
2018-12-21T00:43:56.572Z,6.80
2018-12-21T00:45:07.149Z,6.80
2018-12-21T00:46:15.459Z,6.80
2018-12-21T00:47:21.419Z,6.80
2018-12-21T00:48:27.838Z,6.70
2018-12-21T00:49:33.697Z,6.70
2018-12-21T00:50:39.699Z,6.80
2018-12-21T00:51:45.712Z,6.80
2018-12-21T00:52:51.762Z,6.80
2018-12-21T00:53:58.173Z,6.80
2018-12-21T00:55:04.418Z,6.70
2018-12-21T00:56:10.656Z,6.70
2018-12-21T00:57:17.066Z,6.70
2018-12-21T00:58:23.272Z,6.70
2018-12-21T00:59:29.421Z,6.70
2018-12-21T01:00:35.704Z,6.70
2018-12-21T01:01:42.040Z,6.70
2018-12-21T01:02:48.687Z,6.70
2018-12-21T01:03:54.738Z,6.70
2018-12-21T01:05:01.219Z,6.70
2018-12-21T01:06:07.618Z,6.70
2018-12-21T01:07:14.071Z,6.70
2018-12-21T01:08:20.491Z,6.70
2018-12-21T01:09:26.663Z,6.70
2018-12-21T01:10:32.907Z,6.80
2018-12-21T01:11:39.247Z,6.80
2018-12-21T01:12:45.275Z,6.80
2018-12-21T01:13:51.705Z,6.80
2018-12-21T01:14:57.556Z,6.80
2018-12-21T01:16:03.718Z,6.80
2018-12-21T01:17:09.830Z,6.90
2018-12-21T01:18:15.944Z,6.80
2018-12-21T01:19:21.739Z,6.80
2018-12-21T01:20:27.867Z,6.80
2018-12-21T01:21:38.672Z,6.90
2018-12-21T01:22:43.145Z,6.80
2018-12-21T01:23:50.194Z,6.90
2018-12-21T01:24:56.482Z,6.90
2018-12-21T01:26:02.910Z,6.90
2018-12-21T01:27:08.765Z,6.90
2018-12-21T01:28:14.665Z,6.90
2018-12-21T01:29:21.017Z,6.90
2018-12-21T01:30:30.386Z,6.90
2018-12-21T01:31:36.305Z,6.90
2018-12-21T01:32:42.345Z,6.90
2018-12-21T01:33:49.153Z,6.90
2018-12-21T01:34:55.829Z,7.00
2018-12-21T01:36:01.983Z,7.00
2018-12-21T01:37:09.013Z,6.90
2018-12-21T01:38:14.959Z,6.90
2018-12-21T01:39:23.101Z,7.00
2018-12-21T01:40:29.477Z,7.00
2018-12-21T01:41:36.035Z,7.10
2018-12-21T01:42:42.345Z,7.10
2018-12-21T01:43:48.295Z,7.00
2018-12-21T01:44:54.492Z,7.00
2018-12-21T01:46:00.231Z,7.00
2018-12-21T01:47:06.830Z,7.10
2018-12-21T01:48:13.174Z,7.10
2018-12-21T01:49:19.131Z,7.10
2018-12-21T01:50:25.458Z,7.10
2018-12-21T01:51:31.302Z,7.10
2018-12-21T01:52:37.787Z,7.10
2018-12-21T01:53:44.136Z,7.10
2018-12-21T01:54:50.421Z,7.10
2018-12-21T01:55:56.502Z,7.20
2018-12-21T01:57:02.274Z,7.10
2018-12-21T01:58:08.429Z,7.20
2018-12-21T01:59:14.478Z,7.20
2018-12-21T02:00:20.528Z,7.10
2018-12-21T02:01:26.662Z,7.10
2018-12-21T02:02:32.705Z,7.10
2018-12-21T02:03:38.925Z,7.20
2018-12-21T02:04:45.271Z,7.10
2018-12-21T02:05:51.330Z,7.10
2018-12-21T02:06:57.384Z,7.10
2018-12-21T02:08:03.403Z,7.10
2018-12-21T02:09:10.166Z,7.10
2018-12-21T02:10:16.381Z,7.10
2018-12-21T02:11:22.409Z,7.10
2018-12-21T02:12:28.679Z,7.10
2018-12-21T02:13:35.001Z,7.10
2018-12-21T02:14:41.223Z,7.10
2018-12-21T02:15:47.140Z,7.10
2018-12-21T02:16:53.282Z,7.10
2018-12-21T02:17:59.141Z,7.10
2018-12-21T02:19:05.331Z,7.10
2018-12-21T02:20:11.565Z,7.10
2018-12-21T02:21:17.442Z,7.10
2018-12-21T02:22:23.952Z,7.10
2018-12-21T02:23:29.887Z,7.10
2018-12-21T02:24:36.108Z,7.10
2018-12-21T02:25:42.080Z,7.10
2018-12-21T02:26:48.253Z,7.10
2018-12-21T02:27:54.171Z,7.10
2018-12-21T02:29:00.704Z,7.10
2018-12-21T02:30:07.995Z,7.10
2018-12-21T02:31:13.474Z,7.10
2018-12-21T02:32:19.782Z,7.10
2018-12-21T02:33:25.943Z,7.10
2018-12-21T02:34:31.996Z,7.10
2018-12-21T02:35:38.231Z,7.10
2018-12-21T02:36:44.356Z,7.10
2018-12-21T02:37:50.268Z,7.10
2018-12-21T02:38:56.544Z,7.10
2018-12-21T02:40:03.091Z,7.20
2018-12-21T02:41:09.459Z,7.10
2018-12-21T02:42:15.519Z,7.20
2018-12-21T02:43:21.730Z,7.20
2018-12-21T02:44:27.798Z,7.20
2018-12-21T02:45:33.889Z,7.20
2018-12-21T02:46:40.843Z,7.10
2018-12-21T02:47:47.346Z,7.10
2018-12-21T02:48:53.360Z,7.20
2018-12-21T02:49:59.621Z,7.20
2018-12-21T02:51:05.719Z,7.20
2018-12-21T02:52:11.700Z,7.20
2018-12-21T02:53:17.959Z,7.20
2018-12-21T02:54:24.031Z,7.10
2018-12-21T02:55:30.353Z,7.20
2018-12-21T02:56:36.579Z,7.10
2018-12-21T02:57:42.863Z,7.20
2018-12-21T02:58:48.905Z,7.20
2018-12-21T02:59:54.947Z,7.20
2018-12-21T03:01:00.987Z,7.10
2018-12-21T03:02:06.729Z,7.10
2018-12-21T03:03:13.188Z,7.10
2018-12-21T03:04:19.535Z,7.10
2018-12-21T03:05:25.882Z,7.10
2018-12-21T03:06:32.006Z,7.10
2018-12-21T03:07:37.817Z,7.10
2018-12-21T03:08:44.154Z,7.10
2018-12-21T03:09:49.984Z,7.10
2018-12-21T03:10:55.861Z,7.10
2018-12-21T03:12:01.974Z,7.10
2018-12-21T03:13:08.868Z,7.10
2018-12-21T03:14:15.378Z,7.20
2018-12-21T03:15:21.446Z,7.10
2018-12-21T03:16:28.094Z,7.10
2018-12-21T03:17:34.414Z,7.10
2018-12-21T03:18:41.306Z,7.10
2018-12-21T03:19:47.659Z,7.20
2018-12-21T03:20:53.297Z,7.20
2018-12-21T03:21:59.175Z,7.20
2018-12-21T03:23:03.741Z,7.30
2018-12-21T03:24:08.915Z,7.40
2018-12-21T03:25:14.960Z,7.40
2018-12-21T03:26:21.279Z,7.40
2018-12-21T03:27:28.931Z,7.40
2018-12-21T03:28:35.194Z,7.30
2018-12-21T03:29:42.357Z,7.30
2018-12-21T03:30:48.483Z,7.30
2018-12-21T03:31:54.661Z,7.30
2018-12-21T03:33:01.294Z,7.30
2018-12-21T03:34:07.663Z,7.20
2018-12-21T03:35:13.831Z,7.20
2018-12-21T03:36:20.085Z,7.30
2018-12-21T03:37:26.114Z,7.30
2018-12-21T03:38:32.641Z,7.30
2018-12-21T03:39:38.765Z,7.30
2018-12-21T03:40:45.000Z,7.30
2018-12-21T03:41:51.247Z,7.30
2018-12-21T03:42:57.090Z,7.30
2018-12-21T03:44:02.995Z,7.30
2018-12-21T03:45:09.337Z,7.30
2018-12-21T03:46:15.632Z,7.30
2018-12-21T03:47:21.923Z,7.30
2018-12-21T03:48:28.090Z,7.30
2018-12-21T03:49:33.979Z,7.30
2018-12-21T03:50:39.971Z,7.20
2018-12-21T03:51:46.509Z,7.30
2018-12-21T03:52:52.207Z,7.30
2018-12-21T03:53:58.598Z,7.30
2018-12-21T03:55:04.861Z,7.40
2018-12-21T03:56:10.721Z,7.30
2018-12-21T03:57:17.021Z,7.30
2018-12-21T03:58:22.860Z,7.30
2018-12-21T03:59:29.389Z,7.30
2018-12-21T04:00:35.429Z,7.30
2018-12-21T04:01:41.826Z,7.30
2018-12-21T04:02:48.190Z,7.30
2018-12-21T04:03:54.304Z,7.30
2018-12-21T04:05:00.797Z,7.30
2018-12-21T04:06:07.154Z,7.40
2018-12-21T04:07:13.591Z,7.30
2018-12-21T04:08:20.620Z,7.30
2018-12-21T04:09:26.413Z,7.30
2018-12-21T04:10:33.368Z,7.30
2018-12-21T04:11:40.978Z,7.30
2018-12-21T04:12:47.199Z,7.30
2018-12-21T04:13:54.114Z,7.30
2018-12-21T04:15:00.617Z,7.30
2018-12-21T04:16:06.715Z,7.30
2018-12-21T04:17:12.821Z,7.20
2018-12-21T04:18:18.853Z,7.30
2018-12-21T04:19:24.902Z,7.30
2018-12-21T04:20:30.879Z,7.20
2018-12-21T04:21:36.970Z,7.20
2018-12-21T04:22:43.290Z,7.20
2018-12-21T04:23:49.219Z,7.10
2018-12-21T04:24:55.203Z,7.00
2018-12-21T04:26:01.385Z,6.90
2018-12-21T04:27:07.765Z,6.90
2018-12-21T04:28:13.784Z,7.00
2018-12-21T04:29:20.157Z,6.90
2018-12-21T04:30:26.503Z,6.90
2018-12-21T04:31:33.070Z,6.90
2018-12-21T04:32:40.250Z,6.90
2018-12-21T04:33:46.316Z,6.80
2018-12-21T04:34:53.029Z,6.80
2018-12-21T04:35:59.721Z,6.90
2018-12-21T04:37:05.930Z,6.80
2018-12-21T04:38:12.106Z,6.80
2018-12-21T04:39:18.426Z,6.80
2018-12-21T04:40:24.263Z,6.80
2018-12-21T04:41:30.367Z,6.80
2018-12-21T04:42:36.851Z,6.80
2018-12-21T04:43:42.844Z,6.80
2018-12-21T04:44:49.043Z,6.80
2018-12-21T04:45:54.972Z,6.70
2018-12-21T04:47:01.100Z,6.70
2018-12-21T04:48:07.488Z,6.70
2018-12-21T04:49:13.603Z,6.70
2018-12-21T04:50:20.339Z,6.70
2018-12-21T04:51:26.366Z,6.70
2018-12-21T04:52:32.494Z,6.70
2018-12-21T04:53:38.839Z,6.70
2018-12-21T04:54:45.505Z,6.70
2018-12-21T04:55:52.024Z,6.70
2018-12-21T04:56:58.340Z,6.70
2018-12-21T04:58:04.590Z,6.70
2018-12-21T04:59:11.064Z,6.70
2018-12-21T05:00:17.412Z,6.70
2018-12-21T05:01:23.461Z,6.70
2018-12-21T05:02:29.859Z,6.70
2018-12-21T05:03:36.205Z,6.70
2018-12-21T05:04:42.417Z,6.60
2018-12-21T05:05:48.562Z,6.60
2018-12-21T05:06:54.919Z,6.60
2018-12-21T05:08:00.584Z,6.60
2018-12-21T05:09:07.177Z,6.60
2018-12-21T05:10:13.412Z,6.60
2018-12-21T05:11:19.675Z,6.60
2018-12-21T05:12:26.013Z,6.60
2018-12-21T05:13:32.681Z,6.60
2018-12-21T05:14:38.817Z,6.60
2018-12-21T05:15:44.931Z,6.60
2018-12-21T05:16:51.437Z,6.60
2018-12-21T05:17:57.929Z,6.50
2018-12-21T05:19:03.780Z,6.60
2018-12-21T05:20:10.078Z,6.60
2018-12-21T05:21:16.424Z,6.60
2018-12-21T05:22:22.446Z,6.60
2018-12-21T05:23:28.999Z,6.50
2018-12-21T05:24:35.225Z,6.50
2018-12-21T05:25:41.315Z,6.50
2018-12-21T05:26:47.901Z,6.40
2018-12-21T05:27:54.083Z,6.40
2018-12-21T05:29:00.163Z,6.40
2018-12-21T05:30:08.450Z,6.40
2018-12-21T05:31:15.463Z,6.40
2018-12-21T05:32:21.622Z,6.40
2018-12-21T05:33:28.072Z,6.40
2018-12-21T05:34:35.453Z,6.40
2018-12-21T05:35:41.600Z,6.40
2018-12-21T05:36:47.599Z,6.30
2018-12-21T05:37:53.909Z,6.20
2018-12-21T05:39:00.145Z,6.20
2018-12-21T05:40:06.736Z,6.20
2018-12-21T05:41:12.621Z,6.10
2018-12-21T05:42:18.849Z,6.10
2018-12-21T05:43:24.853Z,6.10
2018-12-21T05:44:30.902Z,6.10
2018-12-21T05:45:37.059Z,6.00
2018-12-21T05:46:43.072Z,6.00
2018-12-21T05:47:48.992Z,6.00
2018-12-21T05:48:55.059Z,6.00
2018-12-21T05:50:00.887Z,6.00
2018-12-21T05:51:07.410Z,6.00
2018-12-21T05:52:13.798Z,6.00
2018-12-21T05:53:19.794Z,6.00
2018-12-21T05:54:26.102Z,6.00
2018-12-21T05:55:32.823Z,6.00
2018-12-21T05:56:38.703Z,6.00
2018-12-21T05:57:45.194Z,6.00
2018-12-21T05:58:51.260Z,6.00
2018-12-21T05:59:57.453Z,5.90
2018-12-21T06:01:03.798Z,5.90
2018-12-21T06:02:09.831Z,5.90
2018-12-21T06:03:15.955Z,5.90
2018-12-21T06:04:21.933Z,5.90
2018-12-21T06:07:00.786Z,5.90
2018-12-21T06:08:07.010Z,6.00
2018-12-21T06:09:12.808Z,5.90
2018-12-21T06:10:18.536Z,6.00
2018-12-21T06:11:25.036Z,6.00
2018-12-21T06:12:30.833Z,6.00
2018-12-21T06:13:37.133Z,6.10
2018-12-21T06:14:43.433Z,6.10
2018-12-21T06:15:49.425Z,6.10
2018-12-21T06:16:55.624Z,6.10
2018-12-21T06:18:02.099Z,6.10
2018-12-21T06:19:08.403Z,6.20
2018-12-21T06:20:14.393Z,6.20
2018-12-21T06:21:20.414Z,6.30
2018-12-21T06:22:26.424Z,6.30
2018-12-21T06:23:32.753Z,6.30
2018-12-21T06:24:38.845Z,6.20
2018-12-21T06:25:45.044Z,6.20
2018-12-21T06:26:51.192Z,6.30
2018-12-21T06:27:57.307Z,6.30
2018-12-21T06:29:03.423Z,6.30
2018-12-21T06:30:09.802Z,6.30
2018-12-21T06:31:15.635Z,6.30
2018-12-21T06:32:21.529Z,6.30
2018-12-21T06:33:27.463Z,6.30
2018-12-21T06:34:33.677Z,6.40
2018-12-21T06:35:39.704Z,6.30
2018-12-21T06:36:46.037Z,6.30
2018-12-21T06:37:51.943Z,6.30
2018-12-21T06:38:57.652Z,6.20
2018-12-21T06:40:03.768Z,6.10
2018-12-21T06:41:09.789Z,6.10
2018-12-21T06:42:16.078Z,6.20
2018-12-21T06:43:22.316Z,6.10
2018-12-21T06:44:28.794Z,6.00
2018-12-21T06:45:34.952Z,5.90
2018-12-21T06:46:41.234Z,5.90
2018-12-21T06:47:48.070Z,5.80
2018-12-21T06:48:54.402Z,5.80
2018-12-21T06:50:00.276Z,5.80
2018-12-21T06:51:05.851Z,5.80
2018-12-21T06:52:12.142Z,5.80
2018-12-21T06:53:18.312Z,5.70
2018-12-21T06:54:24.637Z,5.70
2018-12-21T06:55:30.593Z,5.70
2018-12-21T06:56:37.154Z,5.70
2018-12-21T06:57:43.797Z,5.70
2018-12-21T06:58:49.585Z,5.70
2018-12-21T06:59:55.535Z,5.70
2018-12-21T07:01:01.860Z,5.70
2018-12-21T07:02:08.075Z,5.70
2018-12-21T07:03:17.154Z,5.70
2018-12-21T07:04:22.746Z,5.70
2018-12-21T07:05:28.826Z,5.70
2018-12-21T07:06:34.874Z,5.70
2018-12-21T07:07:40.968Z,5.70
2018-12-21T07:08:47.236Z,5.90
2018-12-21T07:09:53.584Z,6.00
2018-12-21T07:10:59.701Z,6.00
2018-12-21T07:12:06.071Z,5.90
2018-12-21T07:13:12.343Z,5.90
2018-12-21T07:14:18.521Z,5.80
2018-12-21T07:15:24.052Z,5.80
2018-12-21T07:16:30.223Z,5.80
2018-12-21T07:17:36.125Z,5.80
2018-12-21T07:18:42.169Z,5.80
2018-12-21T07:19:48.442Z,5.80
2018-12-21T07:20:54.351Z,5.80
2018-12-21T07:22:00.240Z,5.70
2018-12-21T07:23:06.012Z,5.70
2018-12-21T07:24:11.744Z,5.70
2018-12-21T07:25:17.873Z,5.80
2018-12-21T07:26:24.608Z,5.80
2018-12-21T07:27:30.739Z,5.80
2018-12-21T07:28:37.530Z,5.70
2018-12-21T07:29:43.935Z,5.70
2018-12-21T07:30:49.993Z,5.70
2018-12-21T07:31:56.153Z,5.70
2018-12-21T07:33:02.385Z,5.70
2018-12-21T07:34:08.724Z,5.80
2018-12-21T07:35:15.127Z,5.70
2018-12-21T07:36:21.359Z,5.70
2018-12-21T07:37:27.576Z,5.70
2018-12-21T07:38:33.661Z,5.80
2018-12-21T07:39:39.688Z,5.70
2018-12-21T07:40:46.197Z,5.70
2018-12-21T07:41:52.238Z,5.70
2018-12-21T07:42:58.410Z,5.70
2018-12-21T07:44:04.702Z,5.70
2018-12-21T07:45:11.822Z,5.80
2018-12-21T07:46:17.934Z,5.70
2018-12-21T07:47:23.909Z,5.70
2018-12-21T07:48:30.236Z,5.70
2018-12-21T07:49:36.451Z,5.70
2018-12-21T07:50:42.676Z,5.70
2018-12-21T07:51:48.900Z,5.70
2018-12-21T07:52:54.201Z,5.70
2018-12-21T07:53:59.934Z,5.70
2018-12-21T07:55:06.673Z,5.70
2018-12-21T07:56:12.943Z,5.70
2018-12-21T07:57:17.991Z,5.70
2018-12-21T07:58:23.577Z,5.70
2018-12-21T07:59:29.679Z,5.70
2018-12-21T08:00:34.758Z,5.70
2018-12-21T08:01:40.739Z,5.70
2018-12-21T08:02:46.371Z,5.80
2018-12-21T08:03:51.383Z,5.80
2018-12-21T08:04:57.199Z,5.80
2018-12-21T08:06:01.765Z,5.80
2018-12-21T08:07:07.132Z,5.90
2018-12-21T08:08:11.800Z,5.80
2018-12-21T08:09:17.170Z,5.80
2018-12-21T08:10:21.724Z,5.90
2018-12-21T08:11:26.487Z,5.80
2018-12-21T08:13:57.283Z,5.90
2018-12-21T08:15:01.781Z,5.90
2018-12-21T08:16:07.501Z,5.90
2018-12-21T08:17:12.095Z,5.90
2018-12-21T08:18:16.840Z,6.00
2018-12-21T08:19:22.140Z,6.00
2018-12-21T08:20:27.054Z,6.00
2018-12-21T08:21:31.955Z,6.10
2018-12-21T08:22:37.034Z,6.00
2018-12-21T08:23:44.398Z,6.00
2018-12-21T08:24:49.585Z,6.10
2018-12-21T08:25:54.450Z,6.10
2018-12-21T08:26:59.936Z,6.10
2018-12-21T08:28:04.720Z,6.10
2018-12-21T08:29:09.872Z,6.10
2018-12-21T08:30:14.645Z,6.10
2018-12-21T08:31:19.469Z,6.10
2018-12-21T08:32:24.584Z,6.10
2018-12-21T08:33:30.841Z,6.10
2018-12-21T08:34:37.144Z,6.10
2018-12-21T08:35:43.209Z,6.20
2018-12-21T08:36:48.969Z,6.20
2018-12-21T08:37:55.120Z,6.30
2018-12-21T08:39:00.884Z,6.30
2018-12-21T08:40:08.852Z,6.40
2018-12-21T08:41:14.550Z,6.40
2018-12-21T08:42:20.416Z,6.50
2018-12-21T08:43:28.046Z,6.50
2018-12-21T08:44:33.654Z,6.60
2018-12-21T08:45:39.620Z,6.60
2018-12-21T08:46:45.363Z,6.60
2018-12-21T08:47:51.503Z,6.60
2018-12-21T08:48:57.983Z,6.60
2018-12-21T08:50:04.164Z,6.60
2018-12-21T08:51:09.673Z,6.70
2018-12-21T08:52:15.391Z,6.70
2018-12-21T08:53:21.180Z,6.70
2018-12-21T08:54:27.221Z,6.80
2018-12-21T08:55:33.568Z,6.90
2018-12-21T08:56:39.638Z,6.90
2018-12-21T08:57:45.628Z,6.90
2018-12-21T08:58:52.004Z,6.90
2018-12-21T08:59:57.656Z,6.90
2018-12-21T09:01:03.668Z,6.90
2018-12-21T09:02:10.226Z,6.90
2018-12-21T09:03:15.806Z,6.90
2018-12-21T09:04:21.847Z,6.90
2018-12-21T09:05:27.806Z,7.00
2018-12-21T09:06:33.639Z,7.00
2018-12-21T09:07:39.625Z,7.00
2018-12-21T09:08:45.983Z,7.00
2018-12-21T09:09:51.753Z,7.10
2018-12-21T09:10:58.074Z,7.10
2018-12-21T09:12:04.237Z,7.10
2018-12-21T09:13:10.388Z,7.10
2018-12-21T09:14:16.960Z,7.10
2018-12-21T09:15:23.204Z,7.10
2018-12-21T09:16:29.125Z,7.20
2018-12-21T09:17:35.190Z,7.10
2018-12-21T09:18:41.255Z,7.20
2018-12-21T09:19:47.274Z,7.30
2018-12-21T09:20:53.690Z,7.30
2018-12-21T09:21:59.611Z,7.30
2018-12-21T09:23:05.335Z,7.30
2018-12-21T09:24:11.443Z,7.40
2018-12-21T09:25:17.741Z,7.40
2018-12-21T09:26:23.681Z,7.40
2018-12-21T09:27:29.800Z,7.50
2018-12-21T09:28:36.081Z,7.50
2018-12-21T09:29:42.351Z,7.60
2018-12-21T09:30:48.072Z,7.50
2018-12-21T09:31:54.842Z,7.50
2018-12-21T09:33:00.966Z,7.50
2018-12-21T09:34:06.982Z,7.50
2018-12-21T09:35:12.362Z,7.60
2018-12-21T09:36:18.032Z,7.60
2018-12-21T09:37:23.912Z,7.60
2018-12-21T09:38:29.601Z,7.70
2018-12-21T09:39:35.152Z,7.60
2018-12-21T09:40:41.065Z,7.60
2018-12-21T09:41:48.407Z,7.60
2018-12-21T09:42:54.590Z,7.70
2018-12-21T09:43:59.607Z,7.70
2018-12-21T09:45:05.936Z,7.60
2018-12-21T09:46:12.223Z,7.60
2018-12-21T09:47:18.424Z,7.50
2018-12-21T09:48:25.293Z,7.40
2018-12-21T09:49:31.223Z,7.30
2018-12-21T09:50:37.316Z,7.30
2018-12-21T09:51:45.319Z,7.30
2018-12-21T09:52:51.506Z,7.20
2018-12-21T09:53:58.544Z,7.20
2018-12-21T09:55:05.073Z,7.20
2018-12-21T09:56:11.285Z,7.20
2018-12-21T09:57:17.153Z,7.10
2018-12-21T09:58:22.697Z,7.10
2018-12-21T09:59:28.895Z,7.10
2018-12-21T10:00:35.093Z,7.10
2018-12-21T10:01:41.432Z,7.00
2018-12-21T10:02:47.435Z,7.00
2018-12-21T10:03:53.654Z,7.00
2018-12-21T10:05:00.326Z,7.00
2018-12-21T10:06:06.380Z,7.00
2018-12-21T10:07:12.784Z,6.90
2018-12-21T10:08:19.612Z,6.90
2018-12-21T10:09:25.712Z,6.90
2018-12-21T10:10:32.363Z,6.90
2018-12-21T10:11:38.431Z,6.90
2018-12-21T10:12:44.292Z,6.90
2018-12-21T10:14:00.069Z,6.90
2018-12-21T10:15:08.758Z,6.90
2018-12-21T10:16:24.818Z,6.90
2018-12-21T10:17:34.567Z,6.90
2018-12-21T10:18:46.506Z,6.90
2018-12-21T10:19:59.305Z,6.90
2018-12-21T10:21:04.454Z,6.90
2018-12-21T10:22:22.587Z,6.90
2018-12-21T10:23:28.912Z,6.90
2018-12-21T10:24:35.379Z,7.00
2018-12-21T10:25:52.414Z,7.00
2018-12-21T10:26:59.542Z,7.00
2018-12-21T10:28:17.683Z,7.10
2018-12-21T10:29:23.495Z,7.10
2018-12-21T10:30:32.993Z,7.10
2018-12-21T10:31:47.412Z,7.10
2018-12-21T10:32:53.406Z,7.10
2018-12-21T10:34:10.302Z,7.10
2018-12-21T10:35:17.286Z,7.10
2018-12-21T10:36:25.342Z,7.20
2018-12-21T10:37:42.662Z,7.10
2018-12-21T10:38:48.801Z,7.10
2018-12-21T10:40:07.767Z,7.10
2018-12-21T10:41:13.647Z,7.10
2018-12-21T10:42:33.933Z,7.10
2018-12-21T10:43:46.034Z,7.10
2018-12-21T10:44:59.864Z,7.10
2018-12-21T10:46:05.688Z,7.10
2018-12-21T10:47:15.695Z,7.20
2018-12-21T10:48:29.292Z,7.20
2018-12-21T10:49:34.852Z,7.10
2018-12-21T10:50:41.024Z,7.20
2018-12-21T10:51:58.865Z,7.30
2018-12-21T10:53:05.363Z,7.30
2018-12-21T10:54:26.945Z,7.30
2018-12-21T10:55:45.505Z,7.30
2018-12-21T10:56:51.247Z,7.30
2018-12-21T10:57:57.394Z,7.30
2018-12-21T10:59:21.077Z,7.20
2018-12-21T11:00:25.305Z,7.20
2018-12-21T11:01:43.090Z,7.20
2018-12-21T11:02:47.577Z,7.30
2018-12-21T11:03:52.825Z,7.20
2018-12-21T11:05:11.784Z,7.30
2018-12-21T11:06:18.076Z,7.30
2018-12-21T11:07:27.796Z,7.30
2018-12-21T11:08:42.857Z,7.30
2018-12-21T11:10:50.085Z,7.30
2018-12-21T11:12:07.904Z,7.40
2018-12-21T11:13:14.069Z,7.40
2018-12-21T11:14:19.654Z,7.40
2018-12-21T11:15:37.361Z,7.40
2018-12-21T11:16:43.076Z,7.40
2018-12-21T11:17:51.387Z,7.40
2018-12-21T11:19:06.882Z,7.40
2018-12-21T11:20:13.196Z,7.40
2018-12-21T11:21:30.487Z,7.40
2018-12-21T11:22:37.269Z,7.40
2018-12-21T11:23:42.378Z,7.40
2018-12-21T11:25:00.799Z,7.30
2018-12-21T11:26:07.098Z,7.30
2018-12-21T11:27:13.449Z,7.40
2018-12-21T11:28:30.954Z,7.40
2018-12-21T11:29:36.995Z,7.40
2018-12-21T11:30:56.090Z,7.30
2018-12-21T11:32:02.162Z,7.30
2018-12-21T11:33:10.491Z,7.30
2018-12-21T11:34:27.131Z,7.30
2018-12-21T11:35:34.163Z,7.20
2018-12-21T11:36:51.522Z,7.10
2018-12-21T11:37:57.634Z,7.10
2018-12-21T11:39:15.534Z,7.10
2018-12-21T11:40:21.687Z,7.10
2018-12-21T11:41:27.802Z,7.10
2018-12-21T11:42:45.087Z,7.20
2018-12-21T11:43:51.106Z,7.10
2018-12-21T11:44:57.220Z,7.10
2018-12-21T11:46:02.589Z,7.10
2018-12-21T11:47:07.936Z,7.00
2018-12-21T11:48:13.831Z,7.00
2018-12-21T11:49:19.862Z,7.10
2018-12-21T11:50:26.180Z,7.10
2018-12-21T11:51:32.413Z,7.10
2018-12-21T11:52:38.186Z,7.10
2018-12-21T11:53:44.525Z,7.10
2018-12-21T11:54:50.706Z,7.10
2018-12-21T11:55:56.558Z,7.10
2018-12-21T11:57:02.555Z,7.10
2018-12-21T11:58:08.201Z,7.00
2018-12-21T11:59:13.226Z,7.10
2018-12-21T12:00:18.372Z,7.00
2018-12-21T12:01:24.038Z,7.00
2018-12-21T12:02:29.585Z,7.00
2018-12-21T12:03:36.150Z,6.90
2018-12-21T12:04:41.947Z,7.00
2018-12-21T12:05:47.723Z,7.00
2018-12-21T12:06:53.281Z,7.00
2018-12-21T12:07:58.877Z,6.90
2018-12-21T12:09:06.411Z,6.90
2018-12-21T12:10:12.708Z,6.90
2018-12-21T12:11:18.514Z,7.00
2018-12-21T12:12:24.532Z,7.00
2018-12-21T12:13:30.392Z,7.10
2018-12-21T12:14:36.171Z,7.10
2018-12-21T12:15:42.527Z,7.10
2018-12-21T12:16:48.456Z,7.00
2018-12-21T12:17:53.780Z,7.00
2018-12-21T12:18:59.173Z,7.00
2018-12-21T12:20:05.821Z,6.90
2018-12-21T12:21:12.823Z,6.90
2018-12-21T12:22:19.023Z,7.10
2018-12-21T12:23:25.021Z,7.10
2018-12-21T12:24:31.011Z,7.10
2018-12-21T12:25:36.384Z,7.10
2018-12-21T12:26:44.559Z,7.10
2018-12-21T12:27:49.579Z,7.10
2018-12-21T12:28:55.326Z,7.10
2018-12-21T12:30:00.976Z,7.20
2018-12-21T12:31:07.664Z,7.20
2018-12-21T12:32:13.594Z,7.30
2018-12-21T12:33:19.549Z,7.30
2018-12-21T12:34:25.602Z,7.30
2018-12-21T12:35:31.288Z,7.30
2018-12-21T12:36:37.559Z,7.30
2018-12-21T12:37:43.359Z,7.40
2018-12-21T12:38:48.989Z,7.50
2018-12-21T12:39:53.568Z,7.50
2018-12-21T12:41:06.342Z,7.50
2018-12-21T12:42:07.808Z,7.50
2018-12-21T12:43:14.267Z,7.50
2018-12-21T12:44:21.066Z,7.50
2018-12-21T12:46:38.743Z,7.50
2018-12-21T12:47:45.525Z,7.50
2018-12-21T12:48:52.395Z,7.50
2018-12-21T12:49:58.014Z,7.50
2018-12-21T12:51:04.284Z,7.50
2018-12-21T12:52:10.133Z,7.60
2018-12-21T12:53:16.974Z,7.60
2018-12-21T12:54:23.303Z,7.60
2018-12-21T12:55:28.593Z,7.60
2018-12-21T12:56:34.274Z,7.60
2018-12-21T12:57:39.845Z,7.60
2018-12-21T12:58:45.760Z,7.60
2018-12-21T12:59:51.456Z,7.60
2018-12-21T13:00:57.104Z,7.60
2018-12-21T13:02:02.802Z,7.60
2018-12-21T13:03:08.209Z,7.60
2018-12-21T13:04:14.333Z,7.60
2018-12-21T13:05:20.003Z,7.70
2018-12-21T13:06:25.790Z,7.70
2018-12-21T13:07:31.191Z,7.70
2018-12-21T13:08:38.956Z,7.60
2018-12-21T13:09:44.210Z,7.60
2018-12-21T13:10:49.856Z,7.60
2018-12-21T13:11:55.578Z,7.60
2018-12-21T13:13:00.978Z,7.70
2018-12-21T13:14:06.289Z,7.70
2018-12-21T13:15:11.510Z,7.70
2018-12-21T13:16:17.402Z,7.70
2018-12-21T13:17:23.675Z,7.70
2018-12-21T13:18:30.602Z,7.70
2018-12-21T13:19:36.381Z,7.80
2018-12-21T13:20:41.831Z,7.70
2018-12-21T13:21:47.573Z,7.80
2018-12-21T13:22:53.430Z,7.80
2018-12-21T13:23:59.336Z,7.80
2018-12-21T13:25:11.380Z,7.80
2018-12-21T13:26:13.128Z,7.90
2018-12-21T13:27:19.294Z,7.90
2018-12-21T13:28:25.314Z,7.90
2018-12-21T13:29:31.492Z,7.90
2018-12-21T13:30:37.303Z,7.90
2018-12-21T13:31:43.496Z,7.90
2018-12-21T13:32:48.611Z,8.00
2018-12-21T13:33:54.524Z,8.10
2018-12-21T13:35:00.166Z,8.20
2018-12-21T13:36:05.847Z,8.20
2018-12-21T13:37:12.035Z,8.30
2018-12-21T13:38:17.591Z,8.40
2018-12-21T13:39:23.603Z,8.40
2018-12-21T13:40:30.530Z,8.50
2018-12-21T13:41:35.890Z,8.60
2018-12-21T13:42:42.456Z,8.60
2018-12-21T13:43:48.334Z,8.70
2018-12-21T13:44:55.137Z,8.70
2018-12-21T13:46:01.638Z,8.70
2018-12-21T13:47:07.689Z,8.80
2018-12-21T13:48:13.340Z,8.80
2018-12-21T13:49:19.151Z,8.90
2018-12-21T13:50:25.107Z,8.90
2018-12-21T13:51:31.495Z,9.00
2018-12-21T13:52:37.355Z,9.00
2018-12-21T13:53:42.984Z,9.10
2018-12-21T13:54:48.547Z,9.10
2018-12-21T13:55:54.379Z,9.10
2018-12-21T13:57:00.326Z,9.20
2018-12-21T13:58:06.461Z,9.20
2018-12-21T13:59:11.980Z,9.20
2018-12-21T14:00:17.775Z,9.30
2018-12-21T14:01:24.172Z,9.30
2018-12-21T14:02:30.438Z,9.40
2018-12-21T14:03:36.216Z,9.50
2018-12-21T14:04:41.790Z,9.50
2018-12-21T14:05:47.876Z,9.50
2018-12-21T14:06:53.387Z,9.60
2018-12-21T14:07:59.159Z,9.60
2018-12-21T14:09:07.092Z,9.60
2018-12-21T14:10:12.551Z,9.60
2018-12-21T14:11:18.537Z,9.60
2018-12-21T14:12:23.704Z,9.60
2018-12-21T14:13:29.180Z,9.60
2018-12-21T14:14:35.656Z,9.70
2018-12-21T14:15:41.684Z,9.70
2018-12-21T14:16:47.688Z,9.70
2018-12-21T14:17:52.946Z,9.70
2018-12-21T14:18:58.683Z,9.70
2018-12-21T14:20:07.800Z,9.70
2018-12-21T14:21:13.474Z,9.70
2018-12-21T14:22:19.202Z,9.70
2018-12-21T14:23:25.463Z,9.70
2018-12-21T14:24:31.265Z,9.70
2018-12-21T14:25:37.615Z,9.70
2018-12-21T14:26:43.738Z,9.70
2018-12-21T14:27:50.822Z,9.60
2018-12-21T14:28:57.006Z,9.60
2018-12-21T14:30:02.707Z,9.50
2018-12-21T14:31:09.423Z,9.50
2018-12-21T14:32:16.146Z,9.50
2018-12-21T14:33:21.834Z,9.50
2018-12-21T14:34:28.096Z,9.50
2018-12-21T14:35:34.238Z,9.50
2018-12-21T14:36:40.324Z,9.40
2018-12-21T14:37:46.491Z,9.40
2018-12-21T14:38:52.563Z,9.50
2018-12-21T14:39:58.898Z,9.50
2018-12-21T14:41:05.254Z,9.50
2018-12-21T14:42:11.370Z,9.50
2018-12-21T14:43:17.175Z,9.50
2018-12-21T14:44:23.166Z,9.50
2018-12-21T14:45:29.519Z,9.50
2018-12-21T14:46:35.707Z,9.50
2018-12-21T14:47:41.785Z,9.60
2018-12-21T14:48:47.944Z,9.60
2018-12-21T14:49:53.853Z,9.60
2018-12-21T14:51:00.201Z,9.60
2018-12-21T14:52:06.462Z,9.60
2018-12-21T14:53:12.561Z,9.60